createdAt,value
2018-05-26T00:00:11.340Z,100427.28
2018-05-26T00:02:38.741Z,100429.91
2018-05-26T00:05:06.130Z,100437.70
2018-05-26T00:07:33.515Z,100436.81
2018-05-26T00:10:00.902Z,100436.23
2018-05-26T00:12:28.287Z,100437.08
2018-05-26T00:14:55.669Z,100434.56
2018-05-26T00:17:23.065Z,100431.44
2018-05-26T00:19:50.455Z,100434.66
2018-05-26T00:22:17.837Z,100440.61
2018-05-26T00:24:45.240Z,100438.62
2018-05-26T00:27:12.615Z,100432.31
2018-05-26T00:29:40.010Z,100439.42
2018-05-26T00:32:07.409Z,100432.40
2018-05-26T00:34:35.503Z,100434.63
2018-05-26T00:37:03.444Z,100431.16
2018-05-26T00:39:30.845Z,100431.98
2018-05-26T00:41:58.355Z,100427.55
2018-05-26T00:44:25.749Z,100426.67
2018-05-26T00:46:53.148Z,100428.02
2018-05-26T00:49:21.154Z,100423.59
2018-05-26T00:51:48.539Z,100418.34
2018-05-26T00:54:15.926Z,100414.55
2018-05-26T00:56:43.312Z,100410.67
2018-05-26T00:59:10.702Z,100413.26
2018-05-26T01:01:38.095Z,100414.02
2018-05-26T01:04:05.476Z,100415.77
2018-05-26T01:06:33.533Z,100417.50
2018-05-26T01:09:00.931Z,100410.95
2018-05-26T01:11:28.311Z,100417.44
2018-05-26T01:13:55.706Z,100412.80
2018-05-26T01:16:23.116Z,100411.50
2018-05-26T01:18:51.351Z,100406.63
2018-05-26T01:21:18.730Z,100410.45
2018-05-26T01:23:46.128Z,100409.53
2018-05-26T01:26:13.513Z,100408.75
2018-05-26T01:28:40.894Z,100408.72
2018-05-26T01:31:08.299Z,100411.83
2018-05-26T01:33:35.708Z,100417.70
2018-05-26T01:36:03.692Z,100420.77
2018-05-26T01:38:31.094Z,100419.44
2018-05-26T01:40:58.475Z,100421.03
2018-05-26T01:43:25.873Z,100424.10
2018-05-26T01:45:53.256Z,100421.52
2018-05-26T01:48:20.633Z,100419.72
2018-05-26T01:50:48.030Z,100421.06
2018-05-26T01:53:15.409Z,100420.52
2018-05-26T01:55:42.807Z,100413.63
2018-05-26T01:58:10.191Z,100415.38
2018-05-26T02:00:37.587Z,100409.84
2018-05-26T02:03:04.985Z,100409.39
2018-05-26T02:05:32.378Z,100416.57
2018-05-26T02:07:59.772Z,100415.36
2018-05-26T02:10:27.167Z,100418.44
2018-05-26T02:12:54.634Z,100419.89
2018-05-26T02:15:22.060Z,100410.98
2018-05-26T02:17:49.473Z,100409.89
2018-05-26T02:20:16.860Z,100412.04
2018-05-26T02:22:44.251Z,100412.86
2018-05-26T02:25:11.649Z,100416.81
2018-05-26T02:27:39.060Z,100416.20
2018-05-26T02:30:06.437Z,100424.06
2018-05-26T02:32:33.960Z,100422.36
2018-05-26T02:35:01.409Z,100427.53
2018-05-26T02:37:28.992Z,100430.24
2018-05-26T02:39:56.399Z,100426.45
2018-05-26T02:42:23.787Z,100425.14
2018-05-26T02:44:51.187Z,100424.20
2018-05-26T02:47:18.576Z,100423.45
2018-05-26T02:49:45.967Z,100428.72
2018-05-26T02:52:13.368Z,100427.47
2018-05-26T02:54:40.763Z,100426.66
2018-05-26T02:57:08.160Z,100427.34
2018-05-26T02:59:35.561Z,100428.69
2018-05-26T03:02:02.935Z,100429.16
2018-05-26T03:04:35.881Z,100432.26
2018-05-26T03:07:09.912Z,100433.26
2018-05-26T03:09:42.992Z,100437.40
2018-05-26T03:12:16.051Z,100439.72
2018-05-26T03:14:46.780Z,100447.80
2018-05-26T03:20:16.514Z,100445.09
2018-05-26T03:22:43.906Z,100446.55
2018-05-26T03:25:11.300Z,100451.36
2018-05-26T03:27:38.688Z,100456.70
2018-05-26T03:30:06.087Z,100452.46
2018-05-26T03:32:34.271Z,100454.91
2018-05-26T03:35:01.680Z,100458.66
2018-05-26T03:37:29.075Z,100461.55
2018-05-26T03:39:56.455Z,100454.55
2018-05-26T03:42:23.968Z,100462.59
2018-05-26T03:44:51.363Z,100465.98
2018-05-26T03:47:18.753Z,100454.85
2018-05-26T03:49:46.150Z,100463.56
2018-05-26T03:52:13.547Z,100461.73
2018-05-26T03:54:53.675Z,100455.55
2018-05-26T03:57:32.795Z,100453.45
2018-05-26T04:00:18.061Z,100455.80
2018-05-26T04:02:45.453Z,100456.84
2018-05-26T04:05:12.831Z,100454.83
2018-05-26T04:07:40.222Z,100457.05
2018-05-26T04:10:07.606Z,100470.22
2018-05-26T04:12:35.004Z,100462.73
2018-05-26T04:15:02.398Z,100470.38
2018-05-26T04:17:29.779Z,100473.82
2018-05-26T04:19:57.162Z,100476.56
2018-05-26T04:22:24.566Z,100477.27
2018-05-26T04:24:51.950Z,100471.29
2018-05-26T04:27:19.357Z,100475.66
2018-05-26T04:29:46.738Z,100474.43
2018-05-26T04:32:14.358Z,100476.53
2018-05-26T04:34:41.744Z,100487.86
2018-05-26T04:37:09.140Z,100479.88
2018-05-26T04:39:36.526Z,100479.88
2018-05-26T04:42:04.704Z,100476.36
2018-05-26T04:44:32.148Z,100479.39
2018-05-26T04:46:59.531Z,100477.87
2018-05-26T04:49:26.921Z,100485.16
2018-05-26T04:51:54.451Z,100491.19
2018-05-26T04:54:21.843Z,100492.36
2018-05-26T04:56:49.249Z,100497.07
2018-05-26T04:59:16.632Z,100494.31
2018-05-26T05:01:44.026Z,100503.84
2018-05-26T05:04:11.411Z,100496.56
2018-05-26T05:06:38.816Z,100505.34
2018-05-26T05:09:06.253Z,100503.42
2018-05-26T05:11:33.636Z,100509.30
2018-05-26T05:14:01.351Z,100503.77
2018-05-26T05:16:28.733Z,100504.63
2018-05-26T05:18:56.228Z,100513.64
2018-05-26T05:21:23.615Z,100511.03
2018-05-26T05:23:51.050Z,100517.03
2018-05-26T05:26:18.404Z,100511.25
2018-05-26T05:28:45.789Z,100514.98
2018-05-26T05:31:13.272Z,100520.33
2018-05-26T05:33:40.668Z,100520.25
2018-05-26T05:36:08.055Z,100516.97
2018-05-26T05:38:35.450Z,100525.41
2018-05-26T05:41:02.839Z,100520.91
2018-05-26T05:43:30.232Z,100523.11
2018-05-26T05:45:57.614Z,100520.88
2018-05-26T05:48:25.038Z,100526.14
2018-05-26T05:50:52.432Z,100526.53
2018-05-26T05:53:19.832Z,100527.58
2018-05-26T05:55:47.218Z,100533.27
2018-05-26T05:58:14.619Z,100523.70
2018-05-26T06:00:42.011Z,100521.22
2018-05-26T06:03:09.398Z,100522.03
2018-05-26T06:05:36.789Z,100519.28
2018-05-26T06:08:05.142Z,100520.49
2018-05-26T06:10:32.548Z,100519.62
2018-05-26T06:12:59.972Z,100525.23
2018-05-26T06:15:27.366Z,100528.39
2018-05-26T06:17:54.770Z,100530.58
2018-05-26T06:20:22.183Z,100530.42
2018-05-26T06:22:49.610Z,100531.89
2018-05-26T06:25:16.981Z,100533.28
2018-05-26T06:27:44.370Z,100535.05
2018-05-26T06:30:11.764Z,100537.20
2018-05-26T06:32:39.157Z,100537.61
2018-05-26T06:35:06.549Z,100536.83
2018-05-26T06:37:33.948Z,100536.45
2018-05-26T06:40:01.336Z,100537.28
2018-05-26T06:42:28.732Z,100533.04
2018-05-26T06:44:56.127Z,100540.35
2018-05-26T06:47:23.510Z,100537.91
2018-05-26T06:49:50.898Z,100536.70
2018-05-26T06:52:18.396Z,100537.98
2018-05-26T06:54:45.799Z,100540.11
2018-05-26T06:57:13.182Z,100538.03
2018-05-26T06:59:40.580Z,100538.91
2018-05-26T07:02:07.962Z,100535.05
2018-05-26T07:04:35.452Z,100545.90
2018-05-26T07:07:02.835Z,100544.63
2018-05-26T07:09:30.243Z,100545.09
2018-05-26T07:11:57.627Z,100546.80
2018-05-26T07:14:25.057Z,100543.80
2018-05-26T07:16:52.422Z,100538.13
2018-05-26T07:19:19.849Z,100539.47
2018-05-26T07:21:47.227Z,100535.59
2018-05-26T07:24:14.627Z,100536.92
2018-05-26T07:26:42.023Z,100530.03
2018-05-26T07:29:09.429Z,100540.89
2018-05-26T07:31:36.819Z,100533.09
2018-05-26T07:34:04.226Z,100531.36
2018-05-26T07:36:31.612Z,100536.54
2018-05-26T07:38:59.021Z,100533.09
2018-05-26T07:41:26.397Z,100546.52
2018-05-26T07:43:53.791Z,100548.25
2018-05-26T07:46:21.187Z,100544.78
2018-05-26T07:48:48.579Z,100550.39
2018-05-26T07:51:15.979Z,100544.34
2018-05-26T07:53:43.416Z,100546.09
2018-05-26T07:56:10.806Z,100542.66
2018-05-26T07:58:38.269Z,100549.55
2018-05-26T08:01:08.096Z,100551.28
2018-05-26T08:03:35.580Z,100551.77
2018-05-26T08:06:02.979Z,100552.61
2018-05-26T08:08:30.361Z,100554.34
2018-05-26T08:10:57.771Z,100548.28
2018-05-26T08:13:25.195Z,100549.58
2018-05-26T08:15:52.635Z,100543.06
2018-05-26T08:18:20.008Z,100549.53
2018-05-26T08:20:47.402Z,100549.12
2018-05-26T08:23:14.795Z,100558.20
2018-05-26T08:25:53.292Z,100560.35
2018-05-26T08:28:20.679Z,100557.32
2018-05-26T08:30:48.076Z,100560.38
2018-05-26T08:33:15.462Z,100560.36
2018-05-26T08:35:42.855Z,100561.23
2018-05-26T08:38:10.230Z,100557.75
2018-05-26T08:40:37.630Z,100559.91
2018-05-26T08:43:05.739Z,100562.05
2018-05-26T08:45:33.197Z,100563.80
2018-05-26T08:48:00.554Z,100569.86
2018-05-26T08:50:28.020Z,100568.98
2018-05-26T08:52:55.411Z,100574.64
2018-05-26T08:55:22.804Z,100572.89
2018-05-26T08:57:50.184Z,100573.32
2018-05-26T09:00:17.575Z,100578.08
2018-05-26T09:02:44.948Z,100579.81
2018-05-26T09:05:12.340Z,100572.86
2018-05-26T09:07:39.717Z,100572.00
2018-05-26T09:10:07.103Z,100565.90
2018-05-26T09:12:34.475Z,100563.72
2018-05-26T09:15:01.950Z,100566.73
2018-05-26T09:17:29.267Z,100565.44
2018-05-26T09:19:56.649Z,100570.62
2018-05-26T09:22:24.037Z,100567.13
2018-05-26T09:24:51.418Z,100561.48
2018-05-26T09:27:18.803Z,100561.05
2018-05-26T09:29:46.203Z,100564.48
2018-05-26T09:32:13.597Z,100552.37
2018-05-26T09:34:40.976Z,100563.63
2018-05-26T09:37:08.367Z,100560.08
2018-05-26T09:39:35.986Z,100561.84
2018-05-26T09:42:03.471Z,100564.83
2018-05-26T09:44:30.999Z,100560.44
2018-05-26T09:46:58.415Z,100563.92
2018-05-26T09:49:25.787Z,100565.22
2018-05-26T09:51:53.168Z,100563.84
2018-05-26T09:54:20.544Z,100562.13
2018-05-26T09:56:47.931Z,100561.63
2018-05-26T09:59:15.345Z,100561.58
2018-05-26T10:01:42.726Z,100561.16
2018-05-26T10:04:10.167Z,100563.31
2018-05-26T10:06:37.558Z,100560.18
2018-05-26T10:09:04.944Z,100560.63
2018-05-26T10:11:32.333Z,100561.88
2018-05-26T10:13:59.716Z,100560.58
2018-05-26T10:16:27.096Z,100564.39
2018-05-26T10:18:54.480Z,100567.44
2018-05-26T10:21:21.867Z,100565.56
2018-05-26T10:23:49.250Z,100569.06
2018-05-26T10:26:16.748Z,100567.57
2018-05-26T10:28:44.120Z,100567.55
2018-05-26T10:31:11.503Z,100560.53
2018-05-26T10:33:38.895Z,100560.53
2018-05-26T10:36:06.299Z,100561.41
2018-05-26T10:38:33.790Z,100555.24
2018-05-26T10:41:01.170Z,100559.19
2018-05-26T10:43:28.564Z,100553.36
2018-05-26T10:46:07.667Z,100556.41
2018-05-26T10:48:35.061Z,100554.47
2018-05-26T10:51:02.436Z,100555.70
2018-05-26T10:53:30.046Z,100549.15
2018-05-26T10:55:57.478Z,100548.66
2018-05-26T10:58:24.815Z,100538.72
2018-05-26T11:00:52.194Z,100543.50
2018-05-26T11:03:19.591Z,100550.33
2018-05-26T11:05:46.979Z,100542.84
2018-05-26T11:08:14.421Z,100539.22
2018-05-26T11:10:41.787Z,100547.59
2018-05-26T11:13:09.175Z,100538.93
2018-05-26T11:15:36.555Z,100537.16
2018-05-26T11:18:03.979Z,100539.16
2018-05-26T11:20:31.362Z,100536.16
2018-05-26T11:22:58.898Z,100543.67
2018-05-26T11:25:26.293Z,100543.13
2018-05-26T11:27:53.662Z,100540.04
2018-05-26T11:30:21.111Z,100537.36
2018-05-26T11:32:48.536Z,100539.34
2018-05-26T11:35:15.941Z,100543.34
2018-05-26T11:37:43.320Z,100541.63
2018-05-26T11:40:10.713Z,100538.49
2018-05-26T11:42:38.282Z,100535.42
2018-05-26T11:45:05.664Z,100539.99
2018-05-26T11:47:33.042Z,100535.20
2018-05-26T11:50:00.447Z,100541.87
2018-05-26T11:52:28.209Z,100532.36
2018-05-26T11:54:55.611Z,100541.34
2018-05-26T11:57:23.002Z,100534.52
2018-05-26T11:59:50.385Z,100529.90
2018-05-26T12:02:17.767Z,100532.39
2018-05-26T12:04:45.158Z,100527.92
2018-05-26T12:07:12.616Z,100539.03
2018-05-26T12:09:39.987Z,100537.28
2018-05-26T12:12:07.486Z,100526.81
2018-05-26T12:14:34.868Z,100528.15
2018-05-26T12:17:02.262Z,100535.61
2018-05-26T12:19:29.638Z,100537.59
2018-05-26T12:21:57.029Z,100545.47
2018-05-26T12:24:24.400Z,100538.16
2018-05-26T12:26:51.819Z,100543.39
2018-05-26T12:29:19.196Z,100540.19
2018-05-26T12:31:46.671Z,100532.82
2018-05-26T12:34:14.076Z,100521.80
2018-05-26T12:36:41.474Z,100526.52
2018-05-26T12:39:08.846Z,100529.92
2018-05-26T12:41:36.927Z,100527.66
2018-05-26T12:44:04.562Z,100529.63
2018-05-26T12:46:31.962Z,100524.23
2018-05-26T12:48:59.337Z,100521.52
2018-05-26T12:51:26.723Z,100517.31
2018-05-26T12:53:54.102Z,100514.91
2018-05-26T12:56:21.494Z,100512.59
2018-05-26T12:58:48.878Z,100512.89
2018-05-26T13:01:16.271Z,100510.50
2018-05-26T13:03:43.651Z,100509.36
2018-05-26T13:06:11.046Z,100517.45
2018-05-26T13:08:38.420Z,100516.52
2018-05-26T13:11:05.816Z,100513.56
2018-05-26T13:13:33.201Z,100509.57
2018-05-26T13:16:00.580Z,100506.85
2018-05-26T13:18:27.973Z,100501.83
2018-05-26T13:20:55.357Z,100496.62
2018-05-26T13:23:22.754Z,100492.42
2018-05-26T13:25:50.127Z,100499.45
2018-05-26T13:28:17.527Z,100493.33
2018-05-26T13:30:44.910Z,100486.00
2018-05-26T13:33:12.294Z,100480.11
2018-05-26T13:35:39.680Z,100480.66
2018-05-26T13:38:07.221Z,100482.25
2018-05-26T13:40:34.614Z,100482.20
2018-05-26T13:43:02.012Z,100482.40
2018-05-26T13:45:29.391Z,100482.22
2018-05-26T13:47:56.794Z,100479.19
2018-05-26T13:50:24.184Z,100476.80
2018-05-26T13:52:51.672Z,100479.79
2018-05-26T13:55:19.007Z,100478.38
2018-05-26T13:57:46.338Z,100480.85
2018-05-26T14:00:13.771Z,100475.16
2018-05-26T14:02:41.134Z,100479.05
2018-05-26T14:05:08.615Z,100481.41
2018-05-26T14:07:36.030Z,100475.45
2018-05-26T14:10:03.425Z,100475.27
2018-05-26T14:12:30.809Z,100473.93
2018-05-26T14:14:58.197Z,100472.91
2018-05-26T14:17:25.588Z,100475.91
2018-05-26T14:19:52.977Z,100477.37
2018-05-26T14:22:20.353Z,100475.27
2018-05-26T14:24:47.739Z,100478.54
2018-05-26T14:27:15.134Z,100478.65
2018-05-26T14:29:42.862Z,100474.25
2018-05-26T14:32:10.258Z,100474.48
2018-05-26T14:34:37.965Z,100467.86
2018-05-26T14:37:05.339Z,100474.23
2018-05-26T14:39:32.752Z,100464.50
2018-05-26T14:42:00.125Z,100457.94
2018-05-26T14:44:27.519Z,100459.92
2018-05-26T14:46:54.894Z,100464.24
2018-05-26T14:49:22.299Z,100461.80
2018-05-26T14:51:49.681Z,100471.08
2018-05-26T14:54:17.068Z,100468.72
2018-05-26T14:56:44.447Z,100456.58
2018-05-26T14:59:11.851Z,100451.30
2018-05-26T15:01:39.301Z,100455.14
2018-05-26T15:04:07.649Z,100460.94
2018-05-26T15:06:35.091Z,100457.35
2018-05-26T15:09:02.474Z,100459.99
2018-05-26T15:11:29.867Z,100457.44
2018-05-26T15:13:57.249Z,100456.59
2018-05-26T15:16:24.642Z,100452.11
2018-05-26T15:18:52.030Z,100450.91
2018-05-26T15:21:19.420Z,100450.05
2018-05-26T15:23:46.806Z,100449.95
2018-05-26T15:26:15.533Z,100450.13
2018-05-26T15:28:42.919Z,100450.56
2018-05-26T15:31:10.319Z,100445.42
2018-05-26T15:33:38.145Z,100445.42
2018-05-26T15:36:05.640Z,100443.61
2018-05-26T15:38:33.030Z,100445.28
2018-05-26T15:41:00.436Z,100446.03
2018-05-26T15:43:27.815Z,100443.38
2018-05-26T15:45:55.198Z,100438.81
2018-05-26T15:48:22.587Z,100434.58
2018-05-26T15:50:49.964Z,100437.81
2018-05-26T15:53:17.350Z,100433.96
2018-05-26T15:55:44.736Z,100436.73
2018-05-26T15:58:12.127Z,100437.08
2018-05-26T16:00:39.504Z,100436.48
2018-05-26T16:03:07.932Z,100430.20
2018-05-26T16:05:35.309Z,100438.82
2018-05-26T16:08:02.739Z,100435.23
2018-05-26T16:10:30.120Z,100434.30
2018-05-26T16:12:57.516Z,100432.09
2018-05-26T16:15:24.883Z,100430.88
2018-05-26T16:17:52.276Z,100436.24
2018-05-26T16:20:19.701Z,100442.10
2018-05-26T16:22:47.462Z,100433.88
2018-05-26T16:25:14.849Z,100439.54
2018-05-26T16:27:42.233Z,100433.63
2018-05-26T16:30:09.824Z,100439.09
2018-05-26T16:32:37.990Z,100438.16
2018-05-26T16:35:05.383Z,100444.00
2018-05-26T16:37:32.777Z,100438.59
2018-05-26T16:40:00.167Z,100441.02
2018-05-26T16:42:27.574Z,100443.67
2018-05-26T16:44:54.967Z,100437.50
2018-05-26T16:47:22.367Z,100445.52
2018-05-26T16:49:49.850Z,100440.45
2018-05-26T16:52:17.244Z,100446.80
2018-05-26T16:54:44.639Z,100442.39
2018-05-26T16:57:12.018Z,100442.19
2018-05-26T16:59:39.419Z,100447.03
2018-05-26T17:02:06.794Z,100436.22
2018-05-26T17:04:34.179Z,100436.27
2018-05-26T17:07:01.559Z,100437.45
2018-05-26T17:09:29.118Z,100436.83
2018-05-26T17:11:56.456Z,100441.11
2018-05-26T17:14:23.868Z,100443.19
2018-05-26T17:16:51.289Z,100441.90
2018-05-26T17:19:18.701Z,100439.34
2018-05-26T17:21:46.095Z,100440.00
2018-05-26T17:24:13.478Z,100445.96
2018-05-26T17:26:40.866Z,100443.59
2018-05-26T17:29:08.283Z,100446.45
2018-05-26T17:31:35.679Z,100446.38
2018-05-26T17:34:03.052Z,100442.38
2018-05-26T17:36:30.483Z,100441.99
2018-05-26T17:38:57.819Z,100438.91
2018-05-26T17:41:25.203Z,100436.91
2018-05-26T17:43:52.584Z,100440.77
2018-05-26T17:46:19.964Z,100436.39
2018-05-26T17:48:47.347Z,100441.91
2018-05-26T17:51:14.739Z,100432.56
2018-05-26T17:53:42.332Z,100434.02
2018-05-26T17:56:09.716Z,100433.02
2018-05-26T17:58:37.085Z,100430.03
2018-05-26T18:01:04.459Z,100424.25
2018-05-26T18:03:31.837Z,100427.80
2018-05-26T18:05:59.247Z,100425.00
2018-05-26T18:08:26.789Z,100428.62
2018-05-26T18:10:54.207Z,100432.67
2018-05-26T18:13:21.592Z,100431.68
2018-05-26T18:15:49.055Z,100432.19
2018-05-26T18:18:16.498Z,100432.14
2018-05-26T18:20:43.904Z,100434.48
2018-05-26T18:23:11.315Z,100448.13
2018-05-26T18:25:38.701Z,100443.50
2018-05-26T18:28:06.092Z,100444.00
2018-05-26T18:30:33.477Z,100437.20
2018-05-26T18:33:00.856Z,100440.79
2018-05-26T18:35:28.242Z,100441.39
2018-05-26T18:37:55.630Z,100445.00
2018-05-26T18:40:23.018Z,100451.59
2018-05-26T18:42:50.410Z,100456.03
2018-05-26T18:45:17.799Z,100457.87
2018-05-26T18:47:45.180Z,100462.62
2018-05-26T18:50:12.563Z,100459.36
2018-05-26T18:52:39.948Z,100458.55
2018-05-26T18:55:07.331Z,100462.73
2018-05-26T18:57:34.711Z,100465.35
2018-05-26T19:00:02.097Z,100464.89
2018-05-26T19:02:29.486Z,100466.38
2018-05-26T19:04:56.861Z,100472.55
2018-05-26T19:07:24.260Z,100468.84
2018-05-26T19:09:51.640Z,100475.57
2018-05-26T19:12:19.025Z,100477.23
2018-05-26T19:14:46.409Z,100479.08
2018-05-26T19:17:13.794Z,100479.11
2018-05-26T19:19:41.176Z,100469.66
2018-05-26T19:22:08.790Z,100475.62
2018-05-26T19:24:36.179Z,100477.00
2018-05-26T19:27:03.575Z,100482.41
2018-05-26T19:29:30.955Z,100482.30
2018-05-26T19:31:58.454Z,100484.89
2018-05-26T19:34:25.900Z,100484.31
2018-05-26T19:36:53.297Z,100486.30
2018-05-26T19:39:20.678Z,100494.34
2018-05-26T19:41:48.095Z,100497.25
2018-05-26T19:44:15.482Z,100501.44
2018-05-26T19:46:42.859Z,100500.92
2018-05-26T19:49:10.355Z,100498.65
2018-05-26T19:51:37.739Z,100495.58
2018-05-26T19:54:05.124Z,100498.34
2018-05-26T19:56:32.511Z,100497.98
2018-05-26T19:58:59.900Z,100496.16
2018-05-26T20:01:27.294Z,100502.77
2018-05-26T20:03:54.687Z,100497.36
2018-05-26T20:06:22.222Z,100499.95
2018-05-26T20:08:49.862Z,100507.06
2018-05-26T20:11:17.222Z,100500.44
2018-05-26T20:13:44.609Z,100502.27
2018-05-26T20:16:11.994Z,100502.08
2018-05-26T20:18:39.382Z,100498.64
2018-05-26T20:21:06.783Z,100499.71
2018-05-26T20:23:34.177Z,100498.09
2018-05-26T20:26:01.614Z,100497.27
2018-05-26T20:28:28.994Z,100496.88
2018-05-26T20:30:56.459Z,100499.73
2018-05-26T20:33:23.839Z,100497.73
2018-05-26T20:35:51.277Z,100503.45
2018-05-26T20:38:18.689Z,100513.27
2018-05-26T20:40:46.067Z,100511.19
2018-05-26T20:43:13.448Z,100518.30
2018-05-26T20:45:40.839Z,100522.09
2018-05-26T20:48:09.855Z,100521.59
2018-05-26T20:50:37.250Z,100532.55
2018-05-26T20:53:04.614Z,100532.91
2018-05-26T20:55:32.002Z,100536.56
2018-05-26T20:57:59.380Z,100533.02
2018-05-26T21:00:26.759Z,100532.77
2018-05-26T21:02:54.135Z,100532.94
2018-05-26T21:05:21.532Z,100535.09
2018-05-26T21:07:49.022Z,100529.38
2018-05-26T21:10:16.442Z,100533.14
2018-05-26T21:12:43.858Z,100540.05
2018-05-26T21:15:11.361Z,100531.77
2018-05-26T21:17:39.312Z,100530.31
2018-05-26T21:20:06.716Z,100529.19
2018-05-26T21:22:34.093Z,100530.09
2018-05-26T21:25:01.487Z,100528.75
2018-05-26T21:27:28.864Z,100530.95
2018-05-26T21:29:56.247Z,100533.22
2018-05-26T21:32:23.627Z,100530.33
2018-05-26T21:34:51.004Z,100527.22
2018-05-26T21:37:18.399Z,100523.41
2018-05-26T21:39:45.776Z,100522.85
2018-05-26T21:42:13.165Z,100524.25
2018-05-26T21:44:40.543Z,100519.63
2018-05-26T21:47:07.965Z,100518.44
2018-05-26T21:49:35.332Z,100514.07
2018-05-26T21:52:02.723Z,100519.20
2018-05-26T21:54:30.110Z,100513.55
2018-05-26T21:56:57.502Z,100517.53
2018-05-26T21:59:24.944Z,100517.44
2018-05-26T22:01:52.315Z,100516.43
2018-05-26T22:04:19.691Z,100509.02
2018-05-26T22:06:47.110Z,100510.78
2018-05-26T22:09:14.493Z,100505.59
2018-05-26T22:11:41.891Z,100506.94
2018-05-26T22:14:09.563Z,100496.77
2018-05-26T22:16:36.949Z,100494.81
2018-05-26T22:19:04.624Z,100489.58
2018-05-26T22:21:32.011Z,100479.62
2018-05-26T22:23:59.604Z,100477.03
2018-05-26T22:26:26.995Z,100465.62
2018-05-26T22:28:54.372Z,100471.35
2018-05-26T22:31:22.043Z,100472.91
2018-05-26T22:33:49.570Z,100471.94
2018-05-26T22:36:17.148Z,100489.22
2018-05-26T22:38:44.563Z,100494.28
2018-05-26T22:41:11.941Z,100498.23
2018-05-26T22:43:39.755Z,100504.73
2018-05-26T22:46:07.144Z,100501.37
2018-05-26T22:48:34.587Z,100501.89
2018-05-26T22:51:01.972Z,100510.25
2018-05-26T22:53:29.544Z,100511.57
2018-05-26T22:55:56.908Z,100515.47
2018-05-26T22:58:24.301Z,100522.48
2018-05-26T23:00:51.715Z,100521.22
2018-05-26T23:03:19.124Z,100511.52
2018-05-26T23:05:46.724Z,100519.30
2018-05-26T23:08:14.123Z,100512.45
2018-05-26T23:10:41.546Z,100515.86
2018-05-26T23:13:08.963Z,100514.61
2018-05-26T23:15:36.354Z,100516.83
2018-05-26T23:18:04.059Z,100518.16
2018-05-26T23:20:31.452Z,100510.70
2018-05-26T23:22:58.852Z,100509.41
2018-05-26T23:25:26.248Z,100512.09
2018-05-26T23:27:53.655Z,100509.94
2018-05-26T23:30:21.043Z,100504.36
2018-05-26T23:32:48.431Z,100499.98
2018-05-26T23:35:15.822Z,100493.45
2018-05-26T23:37:43.262Z,100502.62
2018-05-26T23:40:10.690Z,100503.03
2018-05-26T23:42:38.075Z,100508.24
2018-05-26T23:45:05.547Z,100498.73
2018-05-26T23:47:32.988Z,100494.36
2018-05-26T23:50:00.520Z,100491.37
2018-05-26T23:52:27.909Z,100487.02
2018-05-26T23:54:55.392Z,100486.67
2018-05-26T23:57:22.778Z,100472.35
2018-05-26T23:59:50.181Z,100470.14
